Time;durP1;ratioP1;P1;durP2;ratioP2;P2;SDS_P1;SDS_P2;PMS_P1;PMS_P2;Temp;Humidity;BMP_temperature;BMP_pressure;BME280_temperature;BME280_humidity;BME280_pressure;Samples;Min_cycle;Max_cycle;Signal;HPM_P1;HPM_P2
2023/10/12 00:01:23;;;;;;;68.97;25.00;;;16.90;99.90;;;;;;5022223;28;20040;-74
2023/10/12 00:03:55;;;;;;;77.13;23.33;;;17.00;99.90;;;;;;5033027;28;20631;-74
2023/10/12 00:06:22;;;;;;;56.85;22.85;;;16.90;99.90;;;;;;5033626;28;20036;-75
2023/10/12 00:08:48;;;;;;;63.13;23.05;;;16.90;99.90;;;;;;5027484;28;20048;-73
2023/10/12 00:11:19;;;;;;;74.03;22.73;;;16.90;99.90;;;;;;5036488;28;20402;-74
2023/10/12 00:13:47;;;;;;;58.35;21.95;;;17.00;99.90;;;;;;5023414;28;20074;-74
2023/10/12 00:16:18;;;;;;;61.30;22.65;;;17.00;99.90;;;;;;5034597;28;20033;-74
2023/10/12 00:18:46;;;;;;;58.70;21.63;;;17.00;99.90;;;;;;5025623;28;20025;-74
2023/10/12 00:21:18;;;;;;;53.47;20.67;;;17.00;99.90;;;;;;5033187;28;20029;-75
2023/10/12 00:23:45;;;;;;;46.88;18.80;;;17.00;99.90;;;;;;5022351;28;20136;-75
2023/10/12 00:26:11;;;;;;;42.13;18.13;;;17.00;99.90;;;;;;5036627;28;20057;-74
2023/10/12 00:28:38;;;;;;;53.13;17.65;;;17.00;99.90;;;;;;5020419;28;20514;-75
2023/10/12 00:31:12;;;;;;;47.65;16.38;;;17.00;99.90;;;;;;5035662;28;20043;-75
2023/10/12 00:33:38;;;;;;;47.00;17.70;;;17.00;99.90;;;;;;5019972;28;20123;-75
2023/10/12 00:36:04;;;;;;;49.75;19.25;;;17.00;99.90;;;;;;5033748;28;20036;-75
2023/10/12 00:38:31;;;;;;;57.35;19.75;;;17.00;99.90;;;;;;5024533;28;20156;-75
2023/10/12 00:41:03;;;;;;;54.67;21.75;;;17.10;99.90;;;;;;5030683;28;20021;-75
2023/10/12 00:43:37;;;;;;;58.83;24.55;;;17.10;99.90;;;;;;5023072;28;20112;-76
2023/10/12 00:46:16;;;;;;;51.65;22.60;;;17.20;99.90;;;;;;5038028;28;20121;-75
2023/10/12 00:48:47;;;;;;;54.65;24.90;;;17.20;99.90;;;;;;5019927;28;20394;-74
2023/10/12 00:51:16;;;;;;;58.17;23.00;;;17.20;99.90;;;;;;5036772;28;20057;-73
2023/10/12 00:53:55;;;;;;;55.58;25.73;;;17.20;99.90;;;;;;5025610;28;20039;-74
2023/10/12 00:56:24;;;;;;;61.22;24.67;;;17.20;99.90;;;;;;5033976;28;20401;-74
2023/10/12 00:58:53;;;;;;;;;;;17.20;99.90;;;;;;5022017;28;20044;-74
2023/10/12 01:01:20;;;;;;;62.45;26.25;;;17.20;99.90;;;;;;5028710;28;19920;-74
2023/10/12 01:03:47;;;;;;;57.25;23.50;;;17.30;99.90;;;;;;5025269;28;20040;-74
2023/10/12 01:06:32;;;;;;;56.30;22.85;;;17.30;99.90;;;;;;5036904;28;20033;-74
2023/10/12 01:09:13;;;;;;;50.28;20.55;;;17.30;99.90;;;;;;5026145;28;20151;-75
2023/10/12 01:11:44;;;;;;;40.25;19.00;;;17.30;99.90;;;;;;5042401;28;20488;-74
2023/10/12 01:14:09;;;;;;;48.30;19.88;;;17.30;99.90;;;;;;5025963;28;20032;-74
2023/10/12 01:16:54;;;;;;;51.35;20.20;;;17.30;99.90;;;;;;5056929;28;20071;-74
2023/10/12 01:19:22;;;;;;;41.55;16.52;;;17.30;99.90;;;;;;5031028;28;20024;-74
2023/10/12 01:21:52;;;;;;;33.85;15.52;;;17.30;99.90;;;;;;5031815;28;20028;-74
2023/10/12 01:24:18;;;;;;;40.72;15.90;;;17.30;99.90;;;;;;5024005;28;20548;-74
2023/10/12 01:26:48;;;;;;;41.53;15.27;;;17.30;99.90;;;;;;5035905;28;20123;-74
2023/10/12 01:29:22;;;;;;;45.60;15.88;;;17.30;99.90;;;;;;5022258;28;20017;-74
2023/10/12 01:32:05;;;;;;;33.53;16.23;;;17.30;99.90;;;;;;5031303;28;20029;-73
2023/10/12 01:34:32;;;;;;;40.25;16.58;;;17.30;99.90;;;;;;5020609;28;20031;-74
2023/10/12 01:37:02;;;;;;;52.97;17.38;;;17.30;99.90;;;;;;5035168;28;20047;-74
2023/10/12 01:39:31;;;;;;;40.57;15.60;;;17.30;99.90;;;;;;5029412;28;20131;-73
2023/10/12 01:41:57;;;;;;;46.78;16.05;;;17.40;99.90;;;;;;5028091;28;20024;-73
2023/10/12 01:44:23;;;;;;;42.28;15.68;;;17.40;99.90;;;;;;5036830;28;20068;-73
2023/10/12 01:46:49;;;;;;;46.03;15.85;;;17.40;99.90;;;;;;5023092;28;20516;-73
2023/10/12 01:49:17;;;;;;;45.35;16.55;;;17.40;99.90;;;;;;5029487;28;20040;-73
2023/10/12 01:51:46;;;;;;;37.00;18.40;;;17.40;99.90;;;;;;5026376;28;20071;-72
2023/10/12 01:54:14;;;;;;;49.03;19.42;;;17.50;99.90;;;;;;5033111;28;20754;-73
2023/10/12 01:56:40;;;;;;;50.28;20.25;;;17.50;99.90;;;;;;5020645;28;20037;-73
2023/10/12 01:59:07;;;;;;;53.10;20.63;;;17.50;99.90;;;;;;5036475;28;20021;-72
2023/10/12 02:01:33;;;;;;;40.42;19.85;;;17.40;99.90;;;;;;5015307;28;20075;-73
2023/10/12 02:04:02;;;;;;;56.65;21.90;;;17.40;99.90;;;;;;5022974;28;20041;-73
2023/10/12 02:06:28;;;;;;;41.55;19.70;;;17.40;99.90;;;;;;5018390;28;20113;-73
2023/10/12 02:08:54;;;;;;;44.85;18.13;;;17.40;99.90;;;;;;5026120;28;20128;-72
2023/10/12 02:13:48;;;;;;;29.55;14.77;;;17.50;99.90;;;;;;5029912;28;20047;-73
2023/10/12 02:16:24;;;;;;;31.90;13.95;;;17.40;99.90;;;;;;5013395;28;21661;-72
2023/10/12 02:18:53;;;;;;;33.80;13.55;;;17.40;99.90;;;;;;5030994;28;20168;-73
2023/10/12 02:21:21;;;;;;;;;;;17.40;99.90;;;;;;5017347;28;20030;-72
2023/10/12 02:24:19;;;;;;;34.42;14.02;;;17.40;99.90;;;;;;5034958;28;19932;-73
2023/10/12 02:26:35;;;;;;;32.97;12.50;;;17.40;99.90;;;;;;5020020;28;21126;-74
2023/10/12 02:29:11;;;;;;;24.88;11.93;;;17.40;99.90;;;;;;5031859;28;20090;-74
2023/10/12 02:31:58;;;;;;;32.50;12.68;;;17.40;99.90;;;;;;5021183;28;20154;-74
2023/10/12 02:34:28;;;;;;;29.73;11.82;;;17.30;99.90;;;;;;5029830;28;20072;-74
2023/10/12 02:37:00;;;;;;;37.55;13.50;;;17.30;99.90;;;;;;5021649;28;20197;-75
2023/10/12 02:39:27;;;;;;;34.83;12.73;;;17.40;99.90;;;;;;5034221;28;21078;-74
2023/10/12 02:42:10;;;;;;;26.30;12.15;;;17.40;99.90;;;;;;5018826;28;20489;-74
2023/10/12 02:44:42;;;;;;;29.40;12.20;;;17.40;99.90;;;;;;5036392;28;20057;-74
2023/10/12 02:47:12;;;;;;;30.20;13.10;;;17.40;99.90;;;;;;5024514;28;20039;-74
2023/10/12 02:49:40;;;;;;;32.53;13.68;;;17.40;99.90;;;;;;5027936;28;20559;-74
2023/10/12 02:52:08;;;;;;;34.30;13.43;;;17.40;99.90;;;;;;5021823;28;20269;-74
2023/10/12 02:54:48;;;;;;;28.52;13.48;;;17.40;99.90;;;;;;5033146;28;20044;-74
2023/10/12 02:57:14;;;;;;;37.42;14.32;;;17.40;99.90;;;;;;5020689;28;20364;-74
2023/10/12 02:59:40;;;;;;;29.70;13.82;;;17.50;99.90;;;;;;5034615;28;20148;-74
2023/10/12 03:02:21;;;;;;;39.33;16.08;;;17.50;99.90;;;;;;5024048;28;21498;-74
2023/10/12 03:04:48;;;;;;;40.63;17.02;;;17.50;99.90;;;;;;5030962;28;20047;-74
2023/10/12 03:07:22;;;;;;;39.13;16.65;;;17.60;99.90;;;;;;5036811;28;21492;-74
2023/10/12 03:09:55;;;;;;;36.13;16.15;;;17.60;99.90;;;;;;5021202;28;20103;-74
2023/10/12 03:12:23;;;;;;;41.58;17.23;;;17.60;99.90;;;;;;5034746;28;20041;-73
2023/10/12 03:14:51;;;;;;;42.00;16.50;;;17.60;99.90;;;;;;5020292;28;20033;-73
2023/10/12 03:17:19;;;;;;;43.43;16.33;;;17.60;99.90;;;;;;5032251;28;20025;-73
2023/10/12 03:19:55;;;;;;;39.95;15.85;;;17.60;99.90;;;;;;5020629;28;20080;-73
2023/10/12 03:22:31;;;;;;;35.15;14.38;;;17.60;99.90;;;;;;5030044;28;20451;-74
2023/10/12 03:25:05;;;;;;;45.95;14.35;;;17.60;99.90;;;;;;5024510;28;20045;-74
2023/10/12 03:27:33;;;;;;;48.15;15.30;;;17.60;99.90;;;;;;5038871;28;20661;-74
2023/10/12 03:30:07;;;;;;;42.40;13.23;;;17.60;99.90;;;;;;5022482;28;20040;-74
2023/10/12 03:32:33;;;;;;;47.65;14.32;;;17.60;99.90;;;;;;5039294;28;20645;-74
2023/10/12 03:34:58;;;;;;;37.28;12.98;;;17.50;99.90;;;;;;5024198;28;20041;-74
2023/10/12 03:37:40;;;;;;;38.05;12.93;;;17.50;99.90;;;;;;5039835;28;20029;-73
2023/10/12 03:40:49;;;;;;;43.65;12.95;;;17.50;99.90;;;;;;5025944;28;20195;-73
2023/10/12 03:42:55;;;;;;;34.13;11.50;;;17.50;99.90;;;;;;5034603;28;20017;-74
2023/10/12 03:46:27;;;;;;;37.35;10.85;;;17.50;99.90;;;;;;5026392;28;20037;-74
2023/10/12 03:48:25;;;;;;;31.25;10.43;;;17.40;99.90;;;;;;5036188;28;20041;-74
2023/10/12 03:50:58;;;;;;;34.83;10.25;;;17.40;99.90;;;;;;5027079;28;20804;-73
2023/10/12 03:53:27;;;;;;;22.90;9.20;;;17.40;99.90;;;;;;5038794;28;20056;-74
2023/10/12 03:55:58;;;;;;;28.80;10.60;;;17.40;99.80;;;;;;5022390;28;20036;-74
2023/10/12 03:58:24;;;;;;;35.00;10.13;;;17.40;99.80;;;;;;5038327;28;20040;-74
2023/10/12 04:01:27;;;;;;;23.77;10.52;;;17.40;99.80;;;;;;5024952;28;20025;-73
2023/10/12 04:03:42;;;;;;;33.78;10.35;;;17.30;99.90;;;;;;5047180;28;20041;-74
2023/10/12 04:06:22;;;;;;;32.35;9.80;;;17.30;99.80;;;;;;5043121;28;20059;-74
2023/10/12 04:08:58;;;;;;;35.50;10.35;;;17.30;99.90;;;;;;5032784;28;20034;-73
2023/10/12 04:12:04;;;;;;;38.88;10.35;;;17.30;99.90;;;;;;5022623;28;20120;-74
2023/10/12 04:14:17;;;;;;;38.20;11.15;;;17.30;99.90;;;;;;5034550;28;20183;-74
2023/10/12 04:16:45;;;;;;;33.40;10.70;;;17.30;99.90;;;;;;5026555;28;20644;-74
2023/10/12 04:19:15;;;;;;;38.47;10.90;;;17.30;99.90;;;;;;5040379;28;20037;-74
2023/10/12 04:21:58;;;;;;;48.40;11.65;;;17.20;99.90;;;;;;5022407;28;20029;-74
2023/10/12 04:24:27;;;;;;;36.85;10.30;;;17.20;99.90;;;;;;5036437;28;20033;-74
2023/10/12 04:27:24;;;;;;;26.23;10.82;;;17.20;99.90;;;;;;5027172;28;20075;-74
2023/10/12 04:29:39;;;;;;;41.10;11.02;;;17.20;99.90;;;;;;5032119;28;20033;-74
2023/10/12 04:32:15;;;;;;;31.35;9.65;;;17.20;99.90;;;;;;5025515;28;20149;-72
2023/10/12 04:34:50;;;;;;;35.97;10.15;;;17.20;99.90;;;;;;5034366;28;20048;-74
2023/10/12 04:37:22;;;;;;;36.58;10.57;;;17.20;99.90;;;;;;5024391;28;20646;-73
2023/10/12 04:39:49;;;;;;;38.53;10.10;;;17.10;99.90;;;;;;5036314;28;20037;-74
2023/10/12 04:42:25;;;;;;;36.58;11.15;;;17.20;99.90;;;;;;5024136;28;20037;-73
2023/10/12 04:47:05;;;;;;;37.67;10.30;;;17.20;99.90;;;;;;5034067;28;21467;-73
2023/10/12 04:47:36;;;;;;;35.13;10.55;;;17.20;99.90;;;;;;5023389;28;20550;-74
2023/10/12 04:50:05;;;;;;;36.95;10.50;;;17.20;99.90;;;;;;5031490;28;20037;-74
2023/10/12 04:52:36;;;;;;;39.20;11.68;;;17.20;99.90;;;;;;5028113;28;20405;-74
2023/10/12 04:55:21;;;;;;;32.03;10.27;;;17.20;99.90;;;;;;5037134;28;20037;-74
2023/10/12 04:57:49;;;;;;;50.72;12.63;;;17.20;99.90;;;;;;5023570;28;20028;-73
2023/10/12 05:02:53;;;;;;;49.75;14.05;;;17.30;99.90;;;;;;5019063;28;20286;-74
2023/10/12 05:07:55;;;;;;;52.47;14.52;;;17.30;99.90;;;;;;5024777;28;20041;-74
2023/10/12 05:10:27;;;;;;;49.35;14.50;;;17.30;99.90;;;;;;5030187;28;20152;-74
2023/10/12 05:13:04;;;;;;;71.05;14.93;;;17.30;99.90;;;;;;5022970;28;20036;-74
2023/10/12 05:15:39;;;;;;;62.45;16.08;;;17.30;99.90;;;;;;5032617;28;20037;-74
2023/10/12 05:18:07;;;;;;;57.22;15.18;;;17.30;99.90;;;;;;5023311;28;20582;-74
2023/10/12 05:20:32;;;;;;;54.17;13.40;;;17.30;99.90;;;;;;5035388;28;20094;-74
2023/10/12 05:22:58;;;;;;;59.60;14.07;;;17.30;99.90;;;;;;5021721;28;21858;-74
2023/10/12 05:25:32;;;;;;;52.10;13.77;;;17.30;99.90;;;;;;5035072;28;20409;-74
2023/10/12 05:28:09;;;;;;;46.67;13.07;;;17.30;99.90;;;;;;5024642;28;20087;-74
2023/10/12 05:30:37;;;;;;;57.97;14.43;;;17.30;99.90;;;;;;5030920;28;20479;-73
2023/10/12 05:33:06;;;;;;;52.80;14.27;;;17.30;99.90;;;;;;5024644;28;20051;-73
2023/10/12 05:36:42;;;;;;;57.70;13.87;;;17.30;99.90;;;;;;5038736;28;20065;-73
2023/10/12 05:38:18;;;;;;;51.85;14.45;;;17.30;99.90;;;;;;5023946;28;20356;-75
2023/10/12 05:40:53;;;;;;;61.15;15.75;;;17.30;99.90;;;;;;5036619;28;20032;-74
2023/10/12 05:43:22;;;;;;;45.97;14.90;;;17.30;99.90;;;;;;5021007;28;20086;-74
2023/10/12 05:45:47;;;;;;;55.65;14.07;;;17.30;99.90;;;;;;5040215;28;20665;-74
2023/10/12 05:48:15;;;;;;;56.88;13.43;;;17.30;99.90;;;;;;5032701;28;20051;-74
2023/10/12 05:50:42;;;;;;;44.55;14.00;;;17.30;99.90;;;;;;5036893;28;20408;-75
2023/10/12 05:53:07;;;;;;;38.72;13.73;;;17.30;99.90;;;;;;5034495;28;20036;-75
2023/10/12 05:55:34;;;;;;;46.67;14.25;;;17.30;99.90;;;;;;5044422;28;20037;-73
2023/10/12 05:58:11;;;;;;;47.50;14.07;;;17.30;99.90;;;;;;5039319;28;20052;-73
2023/10/12 06:00:45;;;;;;;43.80;14.10;;;17.40;99.90;;;;;;5046816;28;20033;-73
2023/10/12 06:03:27;;;;;;;40.55;12.65;;;17.40;99.90;;;;;;5036742;28;20075;-74
2023/10/12 06:05:53;;;;;;;40.05;12.65;;;17.40;99.90;;;;;;5050653;28;20135;-74
2023/10/12 06:08:19;;;;;;;37.53;12.90;;;17.40;99.90;;;;;;5037109;28;20120;-74
2023/10/12 06:10:45;;;;;;;44.22;12.90;;;17.40;99.90;;;;;;5029191;28;20041;-73
2023/10/12 06:13:14;;;;;;;42.08;12.43;;;17.40;99.90;;;;;;5038001;28;20180;-73
2023/10/12 06:15:41;;;;;;;42.15;11.63;;;17.40;99.90;;;;;;5027996;28;20112;-73
2023/10/12 06:18:13;;;;;;;37.83;12.05;;;17.40;99.90;;;;;;5038792;28;20068;-72
2023/10/12 06:20:42;;;;;;;43.95;12.35;;;17.50;99.90;;;;;;5027764;28;20035;-72
2023/10/12 06:23:09;;;;;;;35.83;12.00;;;17.50;99.90;;;;;;5034687;28;20119;-73
2023/10/12 06:25:38;;;;;;;32.78;11.90;;;17.50;99.90;;;;;;5024654;28;20053;-73
2023/10/12 06:28:07;;;;;;;35.10;10.80;;;17.50;99.90;;;;;;5031651;28;20045;-72
2023/10/12 06:30:34;;;;;;;35.70;10.90;;;17.50;99.90;;;;;;5023755;28;20801;-72
2023/10/12 06:33:02;;;;;;;37.92;11.30;;;17.50;99.90;;;;;;5032713;28;20037;-73
2023/10/12 06:35:33;;;;;;;36.17;11.20;;;17.50;99.90;;;;;;5019587;28;20996;-72
2023/10/12 06:38:15;;;;;;;32.20;11.38;;;17.50;99.90;;;;;;5032556;28;20037;-72
2023/10/12 06:40:48;;;;;;;38.60;11.93;;;17.50;99.90;;;;;;5019636;28;21571;-74
2023/10/12 06:45:49;;;;;;;39.63;11.23;;;17.60;99.90;;;;;;5027015;28;20041;-73
2023/10/12 06:48:47;;;;;;;38.05;10.32;;;17.60;99.90;;;;;;5036520;28;20041;-74
2023/10/12 06:51:03;;;;;;;38.42;10.27;;;17.50;99.90;;;;;;5028494;28;20041;-74
2023/10/12 06:53:34;;;;;;;41.20;10.82;;;17.50;99.90;;;;;;5046732;28;20025;-73
2023/10/12 06:59:27;;;;;;;33.38;9.60;;;17.50;99.90;;;;;;5033139;28;20041;-74
2023/10/12 07:01:38;;;;;;;33.90;9.18;;;17.60;99.90;;;;;;5024555;28;20036;-74
2023/10/12 07:04:13;;;;;;;40.87;10.23;;;17.60;99.90;;;;;;5027036;28;20063;-73
2023/10/12 07:06:41;;;;;;;35.92;10.10;;;17.60;99.90;;;;;;5020885;28;20158;-72
2023/10/12 07:09:07;;;;;;;37.83;10.30;;;17.50;99.90;;;;;;5026597;28;20036;-74
2023/10/12 07:11:33;;;;;;;32.78;10.52;;;17.50;99.90;;;;;;5011678;28;20033;-74
2023/10/12 07:14:04;;;;;;;49.83;12.30;;;17.50;99.90;;;;;;5020361;28;20033;-74
2023/10/12 07:16:36;;;;;;;44.75;11.85;;;17.60;99.90;;;;;;5007862;28;20610;-74
2023/10/12 07:19:02;;;;;;;36.42;11.85;;;17.60;99.90;;;;;;5030505;28;20050;-73
2023/10/12 07:21:27;;;;;;;45.53;13.13;;;17.60;99.90;;;;;;5018138;28;20029;-74
2023/10/12 07:23:54;;;;;;;40.92;12.02;;;17.60;99.90;;;;;;5025027;28;20106;-73
2023/10/12 07:26:21;;;;;;;35.25;11.43;;;17.60;99.90;;;;;;5010896;28;20044;-73
2023/10/12 07:28:49;;;;;;;35.17;11.82;;;17.60;99.90;;;;;;5022206;28;20056;-72
2023/10/12 07:34:01;;;;;;;36.15;9.90;;;17.70;99.90;;;;;;5025938;28;20250;-72
2023/10/12 07:36:58;;;;;;;34.13;11.07;;;17.70;99.90;;;;;;5017208;28;20454;-72
2023/10/12 07:39:17;;;;;;;42.25;11.10;;;17.70;99.90;;;;;;5027788;28;20045;-74
2023/10/12 07:41:53;;;;;;;45.92;11.40;;;17.70;99.90;;;;;;5014031;28;20037;-74
2023/10/12 07:44:21;;;;;;;46.83;12.38;;;17.70;99.90;;;;;;5019526;28;20489;-70
2023/10/12 07:46:46;;;;;;;52.53;13.00;;;17.80;99.90;;;;;;5014500;28;20136;-74
2023/10/12 07:50:25;;;;;;;54.22;13.32;;;17.80;99.90;;;;;;5025709;28;20036;-74
2023/10/12 07:52:09;;;;;;;43.08;13.10;;;17.80;99.90;;;;;;5015637;28;20036;-74
2023/10/12 07:54:57;;;;;;;50.47;13.68;;;17.80;99.90;;;;;;5025701;28;20136;-74
2023/10/12 07:57:22;;;;;;;43.42;12.73;;;17.70;99.90;;;;;;5005870;28;20114;-73
2023/10/12 08:00:34;;;;;;;57.00;13.43;;;17.80;99.90;;;;;;5025104;28;20040;-74
2023/10/12 08:10:56;;;;;;;54.03;12.05;;;17.90;99.90;;;;;;5019959;28;20568;-75
2023/10/12 08:15:49;;;;;;;48.30;11.25;;;17.90;99.90;;;;;;5022553;28;20049;-77
2023/10/12 08:21:01;;;;;;;46.25;9.77;;;17.90;99.90;;;;;;5027878;28;20037;-75
2023/10/12 08:23:27;;;;;;;52.53;10.10;;;18.00;99.90;;;;;;5015510;28;20040;-77
2023/10/12 08:25:57;;;;;;;36.97;8.85;;;18.00;99.90;;;;;;5026428;28;20094;-75
2023/10/12 08:28:25;;;;;;;37.50;8.70;;;18.10;99.90;;;;;;5018986;28;20029;-76
2023/10/12 08:31:00;;;;;;;43.58;8.88;;;18.10;99.90;;;;;;5022122;28;20032;-76
2023/10/12 08:35:39;;;;;;;33.45;7.03;;;18.20;99.90;;;;;;5016891;28;20132;-75
2023/10/12 08:38:56;;;;;;;28.20;7.25;;;18.10;99.90;;;;;;5019132;28;20040;-78
2023/10/12 08:41:56;;;;;;;27.45;7.53;;;18.10;99.90;;;;;;5027904;28;20075;-75
2023/10/12 08:44:09;;;;;;;29.00;7.70;;;18.20;99.90;;;;;;5013797;28;20024;-79
2023/10/12 08:46:56;;;;;;;24.90;7.00;;;18.30;99.90;;;;;;5025094;28;20037;-79
2023/10/12 08:49:52;;;;;;;32.88;7.28;;;18.40;99.90;;;;;;5017857;28;20497;-73
2023/10/12 08:52:18;;;;;;;26.05;6.35;;;18.50;99.90;;;;;;5028011;28;20123;-73
2023/10/12 08:54:51;;;;;;;30.63;6.80;;;18.60;99.90;;;;;;5018874;28;20033;-73
2023/10/12 08:57:20;;;;;;;29.70;6.78;;;18.80;99.90;;;;;;5026061;28;20709;-74
2023/10/12 09:00:39;;;;;;;30.00;6.30;;;18.80;99.70;;;;;;5014887;28;20128;-73
2023/10/12 09:02:39;;;;;;;28.50;6.25;;;18.90;99.30;;;;;;5029793;28;20041;-73
2023/10/12 09:05:10;;;;;;;30.48;7.55;;;18.90;99.40;;;;;;5014354;28;20036;-73
2023/10/12 09:07:45;;;;;;;33.25;7.55;;;18.90;99.40;;;;;;5030317;28;20068;-73
2023/10/12 09:10:36;;;;;;;33.17;6.72;;;18.80;99.40;;;;;;5013652;28;20041;-73
2023/10/12 09:12:57;;;;;;;38.17;7.45;;;18.80;99.40;;;;;;5029190;28;20127;-73
2023/10/12 09:15:29;;;;;;;34.90;6.80;;;18.70;99.40;;;;;;5017054;28;20127;-76
2023/10/12 09:17:55;;;;;;;31.85;7.13;;;18.80;99.70;;;;;;5024645;28;20779;-74
2023/10/12 09:20:29;;;;;;;28.05;6.40;;;18.90;99.20;;;;;;5016718;28;20048;-77
2023/10/12 09:23:05;;;;;;;32.05;6.53;;;19.10;99.10;;;;;;5023634;28;20033;-74
2023/10/12 09:26:35;;;;;;;28.85;6.32;;;19.10;98.80;;;;;;5016706;28;20046;-76
2023/10/12 09:28:18;;;;;;;24.92;5.03;;;19.20;98.80;;;;;;5028758;28;20814;-76
2023/10/12 09:30:45;;;;;;;30.92;5.88;;;19.20;98.20;;;;;;5010986;28;20409;-76
2023/10/12 09:33:44;;;;;;;21.50;5.07;;;19.30;98.20;;;;;;5029464;28;20029;-76
2023/10/12 09:36:00;;;;;;;29.98;5.47;;;19.40;97.90;;;;;;5021214;28;20032;-74
2023/10/12 09:38:30;;;;;;;22.13;5.18;;;19.40;97.80;;;;;;5034140;28;20025;-74
2023/10/12 09:41:00;;;;;;;24.27;5.85;;;19.20;97.60;;;;;;5043526;28;20069;-77
2023/10/12 09:43:30;;;;;;;34.55;5.70;;;19.20;98.20;;;;;;5027072;28;20450;-76
2023/10/12 09:46:05;;;;;;;26.60;5.20;;;19.10;98.10;;;;;;5022087;28;20035;-81
2023/10/12 09:48:38;;;;;;;28.55;5.43;;;19.10;98.30;;;;;;5029920;28;20080;-74
2023/10/12 09:51:15;;;;;;;22.45;4.80;;;19.20;98.10;;;;;;5011625;28;20036;-73
2023/10/12 09:53:49;;;;;;;23.17;5.18;;;19.30;98.00;;;;;;5027026;28;20905;-74
2023/10/12 09:56:28;;;;;;;23.90;5.65;;;19.20;98.10;;;;;;5013954;28;20039;-73
2023/10/12 09:59:13;;;;;;;26.73;6.07;;;19.20;98.10;;;;;;5023010;28;20056;-74
2023/10/12 10:04:41;;;;;;;25.63;5.13;;;19.40;97.90;;;;;;5021237;28;20025;-74
2023/10/12 10:07:15;;;;;;;28.85;5.47;;;19.40;97.70;;;;;;5021536;28;20120;-73
2023/10/12 10:09:46;;;;;;;16.73;4.53;;;19.40;97.70;;;;;;5028599;28;20124;-73
2023/10/12 10:12:16;;;;;;;23.98;4.60;;;19.50;97.30;;;;;;5013871;28;20033;-75
2023/10/12 10:14:44;;;;;;;;;;;19.50;97.20;;;;;;5029455;28;20101;-74
2023/10/12 10:17:15;;;;;;;14.85;3.33;;;19.70;96.80;;;;;;5020453;28;19971;-73
2023/10/12 10:19:44;;;;;;;17.88;4.45;;;19.60;96.50;;;;;;5030131;28;20037;-74
2023/10/12 10:22:14;;;;;;;11.48;3.30;;;19.60;96.60;;;;;;5019607;28;21008;-73
2023/10/12 10:24:43;;;;;;;10.35;3.25;;;19.70;96.60;;;;;;5025034;28;20066;-73
2023/10/12 10:27:11;;;;;;;12.05;3.13;;;19.90;96.00;;;;;;5022002;28;20029;-74
2023/10/12 10:29:45;;;;;;;14.33;3.00;;;20.00;95.80;;;;;;5030982;28;20083;-73
2023/10/12 10:32:14;;;;;;;11.38;2.97;;;20.20;95.50;;;;;;5018270;28;20041;-73
2023/10/12 10:34:41;;;;;;;;;;;20.30;95.10;;;;;;5035755;28;20053;-73
2023/10/12 10:37:11;;;;;;;12.07;3.30;;;20.40;94.60;;;;;;5032068;28;19924;-73
2023/10/12 10:39:43;;;;;;;15.25;3.67;;;20.30;94.40;;;;;;5027049;28;20060;-76
2023/10/12 10:42:09;;;;;;;14.32;2.97;;;20.40;94.20;;;;;;5032761;28;20037;-75
2023/10/12 10:44:41;;;;;;;13.55;3.10;;;20.50;93.90;;;;;;5019552;28;21065;-74
2023/10/12 10:47:10;;;;;;;15.20;3.50;;;20.60;94.30;;;;;;5027733;28;20039;-74
2023/10/12 10:49:35;;;;;;;14.90;3.05;;;20.70;93.80;;;;;;5022914;28;20033;-74
2023/10/12 10:54:32;;;;;;;11.27;2.40;;;21.00;93.30;;;;;;5023771;28;20155;-74
2023/10/12 10:56:59;;;;;;;13.15;2.22;;;20.90;93.20;;;;;;5032154;28;20111;-80
2023/10/12 10:59:25;;;;;;;7.88;2.47;;;20.70;93.20;;;;;;5024584;28;20048;-77
2023/10/12 11:01:52;;;;;;;8.63;2.10;;;20.50;93.60;;;;;;5032950;28;20036;-77
2023/10/12 11:04:51;;;;;;;12.25;2.95;;;20.30;94.20;;;;;;5008680;28;20037;-76
2023/10/12 11:07:11;;;;;;;11.40;2.72;;;20.30;94.50;;;;;;5037950;28;20274;-74
2023/10/12 11:10:19;;;;;;;12.30;2.47;;;20.20;94.60;;;;;;5025913;28;20033;-76
2023/10/12 11:12:31;;;;;;;12.80;2.20;;;20.20;94.30;;;;;;5026802;28;20036;-74
2023/10/12 11:15:00;;;;;;;9.38;2.20;;;20.50;94.10;;;;;;5025377;28;20037;-76
2023/10/12 11:17:30;;;;;;;;;;;20.60;93.80;;;;;;5031023;28;20037;-75
2023/10/12 11:19:57;;;;;;;13.18;3.05;;;20.70;93.50;;;;;;5026002;28;19912;-76
2023/10/12 11:22:23;;;;;;;12.70;2.05;;;20.70;93.40;;;;;;5033975;28;21598;-76
2023/10/12 11:24:49;;;;;;;10.10;2.38;;;20.70;93.50;;;;;;5014830;28;20061;-73
2023/10/12 11:27:35;;;;;;;6.53;1.83;;;20.90;93.40;;;;;;5033225;28;20048;-73
2023/10/12 11:30:07;;;;;;;11.38;2.70;;;21.00;92.70;;;;;;5022583;28;20041;-77
2023/10/12 11:32:53;;;;;;;12.93;3.10;;;21.10;93.10;;;;;;5023259;28;20033;-72
2023/10/12 11:35:33;;;;;;;15.48;3.60;;;21.00;93.20;;;;;;5024715;28;20421;-75
2023/10/12 11:37:59;;;;;;;22.63;3.67;;;20.80;93.20;;;;;;5026770;28;21304;-75
2023/10/12 11:40:30;;;;;;;16.38;3.97;;;20.70;93.50;;;;;;5019464;28;20064;-76
2023/10/12 11:42:57;;;;;;;14.50;3.92;;;20.50;93.80;;;;;;5031641;28;21606;-76
2023/10/12 11:45:32;;;;;;;17.38;3.40;;;20.50;93.80;;;;;;5017176;28;20141;-75
2023/10/12 11:48:15;;;;;;;21.02;4.20;;;20.40;94.40;;;;;;5029407;28;20059;-74
2023/10/12 11:50:40;;;;;;;17.80;3.60;;;20.40;93.90;;;;;;5019393;28;20052;-76
2023/10/12 11:53:06;;;;;;;13.27;3.42;;;20.40;94.30;;;;;;5032146;28;20040;-75
2023/10/12 11:55:32;;;;;;;16.50;3.60;;;20.20;93.90;;;;;;5019258;28;20044;-75
2023/10/12 11:57:59;;;;;;;16.75;3.17;;;20.10;94.20;;;;;;5030033;28;20029;-74
2023/10/12 12:00:44;;;;;;;14.10;2.75;;;19.90;94.70;;;;;;5025336;28;20056;-74
2023/10/12 12:03:11;;;;;;;15.77;2.90;;;19.70;95.00;;;;;;5031863;28;20463;-78
2023/10/12 12:05:37;;;;;;;14.60;3.38;;;19.50;95.40;;;;;;5014558;28;20048;-74
2023/10/12 12:08:14;;;;;;;13.27;2.53;;;19.40;95.60;;;;;;5033479;28;20037;-74
2023/10/12 12:10:45;;;;;;;15.48;3.08;;;19.30;95.80;;;;;;5018532;28;20040;-76
2023/10/12 12:13:12;;;;;;;14.07;3.17;;;19.10;96.00;;;;;;5032239;28;20044;-76
2023/10/12 12:15:45;;;;;;;12.98;2.33;;;19.00;96.20;;;;;;5025585;28;20032;-75
2023/10/12 12:18:19;;;;;;;13.88;3.00;;;19.10;96.70;;;;;;5032342;28;20744;-75
2023/10/12 12:20:47;;;;;;;14.85;2.63;;;19.30;96.10;;;;;;5028496;28;20033;-77
2023/10/12 12:23:13;;;;;;;15.95;2.95;;;19.60;95.80;;;;;;5031436;28;20043;-73
2023/10/12 12:25:40;;;;;;;14.20;3.05;;;19.60;95.50;;;;;;5049789;28;20061;-74
2023/10/12 12:28:07;;;;;;;18.02;3.45;;;19.60;95.30;;;;;;5035133;28;20044;-77
2023/10/12 12:30:36;;;;;;;17.42;2.60;;;19.60;95.20;;;;;;5029039;28;20037;-76
2023/10/12 12:33:08;;;;;;;16.58;2.35;;;19.60;95.20;;;;;;5015692;28;20134;-74
2023/10/12 12:35:36;;;;;;;26.35;2.97;;;19.60;95.30;;;;;;5029130;28;20055;-75
2023/10/12 12:38:06;;;;;;;12.05;2.63;;;19.80;95.20;;;;;;5014735;28;20153;-78
2023/10/12 12:40:38;;;;;;;17.35;2.55;;;20.00;94.50;;;;;;5024574;28;20115;-77
2023/10/12 12:43:07;;;;;;;12.75;2.90;;;19.90;94.40;;;;;;5016351;28;20563;-80
2023/10/12 12:45:35;;;;;;;13.65;2.53;;;20.10;94.30;;;;;;5024008;28;20033;-76
2023/10/12 12:48:02;;;;;;;18.08;3.38;;;20.20;94.00;;;;;;5021335;28;20048;-77
2023/10/12 12:50:29;;;;;;;16.08;2.45;;;20.40;93.50;;;;;;5030077;28;20103;-77
2023/10/12 12:52:55;;;;;;;13.40;2.35;;;20.60;93.10;;;;;;5019058;28;20033;-78
2023/10/12 12:55:22;;;;;;;10.52;3.00;;;20.70;92.60;;;;;;5032448;28;20088;-77
2023/10/12 12:57:48;;;;;;;14.55;2.83;;;20.50;92.70;;;;;;5014903;28;20029;-77
2023/10/12 13:00:21;;;;;;;12.82;2.25;;;20.50;92.60;;;;;;5027819;28;20087;-78
2023/10/12 13:02:47;;;;;;;10.55;1.98;;;20.50;92.60;;;;;;5019080;28;20088;-78
2023/10/12 13:05:14;;;;;;;11.27;2.13;;;20.60;92.70;;;;;;5026457;28;20028;-77
2023/10/12 13:07:40;;;;;;;8.18;2.13;;;20.70;92.40;;;;;;5022516;28;20048;-86
2023/10/12 13:10:11;;;;;;;14.70;2.30;;;20.60;92.40;;;;;;5031114;28;20626;-79
2023/10/12 13:12:40;;;;;;;7.95;1.52;;;20.50;92.60;;;;;;5016933;28;20052;-77
2023/10/12 13:15:09;;;;;;;7.20;1.73;;;20.50;92.40;;;;;;5031147;28;20068;-77
2023/10/12 13:17:37;;;;;;;;;;;20.50;92.60;;;;;;5023715;28;20056;-80
2023/10/12 13:20:04;;;;;;;11.80;1.92;;;20.80;92.40;;;;;;5025553;28;20130;-78
2023/10/12 13:22:29;;;;;;;14.90;1.60;;;21.20;91.60;;;;;;5031785;28;20033;-77
2023/10/12 13:24:58;;;;;;;6.63;1.50;;;21.20;91.60;;;;;;5019325;28;21900;-77
2023/10/12 13:27:28;;;;;;;12.57;1.92;;;21.20;91.30;;;;;;5028769;28;20025;-79
2023/10/12 13:30:00;;;;;;;10.73;1.85;;;21.20;91.20;;;;;;5020562;28;20049;-77
2023/10/12 13:32:26;;;;;;;12.73;1.70;;;21.10;91.40;;;;;;5030490;28;20102;-80